createdAt,value
2023-05-18T00:00:19.595Z,69.10
2023-05-18T00:01:19.530Z,69.20
2023-05-18T00:02:19.453Z,69.20
2023-05-18T00:03:19.522Z,69.20
2023-05-18T00:04:19.486Z,69.40
2023-05-18T00:05:19.433Z,69.40
2023-05-18T00:06:19.385Z,69.40
2023-05-18T00:07:19.380Z,69.51
2023-05-18T00:08:19.397Z,69.30
2023-05-18T00:09:19.363Z,69.51
2023-05-18T00:10:19.435Z,69.51
2023-05-18T00:11:19.368Z,69.61
2023-05-18T00:12:19.337Z,69.61
2023-05-18T00:13:19.345Z,69.61
2023-05-18T00:14:19.320Z,69.64
2023-05-18T00:15:19.289Z,69.74
2023-05-18T00:16:19.387Z,69.84
2023-05-18T00:17:19.338Z,69.84
2023-05-18T00:18:19.247Z,69.95
2023-05-18T00:19:19.380Z,70.05
2023-05-18T00:20:19.230Z,70.26
2023-05-18T00:21:19.225Z,70.26
2023-05-18T00:22:19.304Z,70.36
2023-05-18T00:23:19.194Z,70.46
2023-05-18T00:24:19.202Z,70.67
2023-05-18T00:25:19.179Z,70.67
2023-05-18T00:26:19.169Z,70.67
2023-05-18T00:27:19.137Z,70.56
2023-05-18T00:28:19.169Z,70.56
2023-05-18T00:29:19.125Z,70.67
2023-05-18T00:30:19.126Z,70.67
2023-05-18T00:31:19.131Z,70.67
2023-05-18T00:32:19.144Z,70.67
2023-05-18T00:33:19.097Z,70.77
2023-05-18T00:34:21.015Z,70.80
2023-05-18T00:35:19.069Z,70.77
2023-05-18T00:36:19.056Z,71.01
2023-05-18T00:37:19.069Z,71.01
2023-05-18T00:38:40.038Z,71.01
2023-05-18T00:39:19.065Z,70.90
2023-05-18T00:40:19.015Z,70.90
2023-05-18T00:41:19.007Z,71.01
2023-05-18T00:42:18.988Z,71.01
2023-05-18T00:43:18.983Z,71.01
2023-05-18T00:44:19.005Z,71.11
2023-05-18T00:45:18.985Z,71.21
2023-05-18T00:46:19.045Z,71.11
2023-05-18T00:47:18.962Z,71.21
2023-05-18T00:48:18.966Z,71.42
2023-05-18T00:49:18.921Z,71.52
2023-05-18T00:50:18.906Z,71.62
2023-05-18T00:51:18.896Z,71.62
2023-05-18T00:52:18.912Z,71.66
2023-05-18T00:53:18.888Z,71.76
2023-05-18T00:54:18.857Z,71.97
2023-05-18T00:55:18.850Z,72.17
2023-05-18T00:56:18.837Z,72.27
2023-05-18T00:57:18.864Z,72.17
2023-05-18T00:58:18.835Z,72.17
2023-05-18T00:59:18.840Z,72.31
2023-05-18T01:00:18.788Z,72.61
2023-05-18T01:01:18.842Z,72.82
2023-05-18T01:02:18.813Z,72.82
2023-05-18T01:03:18.790Z,72.78
2023-05-18T01:04:18.773Z,72.82
2023-05-18T01:05:20.736Z,72.72
2023-05-18T01:06:18.727Z,72.82
2023-05-18T01:07:18.729Z,72.92
2023-05-18T01:08:18.726Z,73.13
2023-05-18T01:09:18.717Z,73.23
2023-05-18T01:10:18.707Z,73.02
2023-05-18T01:11:18.744Z,73.02
2023-05-18T01:12:18.648Z,73.02
2023-05-18T01:13:18.786Z,73.13
2023-05-18T01:14:18.674Z,73.13
2023-05-18T01:15:18.650Z,73.02
2023-05-18T01:16:18.609Z,73.13
2023-05-18T01:17:18.844Z,73.23
2023-05-18T01:18:18.588Z,73.23
2023-05-18T01:19:18.704Z,73.23
2023-05-18T01:20:18.611Z,73.33
2023-05-18T01:21:18.552Z,73.13
2023-05-18T01:22:18.579Z,73.33
2023-05-18T01:23:18.527Z,73.36
2023-05-18T01:24:18.522Z,73.36
2023-05-18T01:25:18.528Z,73.57
2023-05-18T01:26:18.494Z,73.68
2023-05-18T01:27:18.552Z,73.78
2023-05-18T01:28:18.502Z,73.88
2023-05-18T01:29:18.462Z,73.98
2023-05-18T01:30:18.515Z,73.91
2023-05-18T01:31:18.605Z,74.22
2023-05-18T01:32:18.434Z,74.43
2023-05-18T01:33:18.471Z,74.63
2023-05-18T01:34:18.441Z,74.63
2023-05-18T01:35:18.410Z,74.74
2023-05-18T01:36:18.390Z,74.84
2023-05-18T01:37:18.375Z,74.74
2023-05-18T01:38:18.815Z,74.84
2023-05-18T01:39:18.354Z,75.04
2023-05-18T01:40:18.416Z,75.15
2023-05-18T01:41:19.830Z,75.25
2023-05-18T01:42:18.670Z,75.29
2023-05-18T01:43:18.303Z,75.35
2023-05-18T01:44:18.612Z,75.59
2023-05-18T01:45:18.276Z,75.67
2023-05-18T01:46:18.317Z,75.80
2023-05-18T01:47:18.251Z,75.80
2023-05-18T01:48:18.488Z,75.80
2023-05-18T01:49:18.243Z,75.90
2023-05-18T01:50:18.517Z,75.90
2023-05-18T01:51:18.247Z,76.11
2023-05-18T01:52:18.221Z,76.11
2023-05-18T01:53:18.197Z,76.31
2023-05-18T01:54:18.186Z,76.25
2023-05-18T01:55:18.211Z,76.14
2023-05-18T01:56:19.033Z,76.25
2023-05-18T01:57:18.176Z,76.45
2023-05-18T01:58:18.142Z,76.66
2023-05-18T01:59:18.137Z,76.66
2023-05-18T02:00:18.154Z,76.76
2023-05-18T02:01:18.112Z,76.76
2023-05-18T02:02:20.121Z,76.86
2023-05-18T02:03:18.248Z,76.97
2023-05-18T02:04:18.177Z,76.97
2023-05-18T02:05:18.254Z,77.07
2023-05-18T02:06:18.067Z,77.17
2023-05-18T02:07:20.033Z,77.07
2023-05-18T02:08:18.033Z,77.07
2023-05-18T02:09:18.000Z,77.07
2023-05-18T02:10:18.021Z,77.17
2023-05-18T02:11:18.334Z,77.17
2023-05-18T02:12:22.242Z,77.07
2023-05-18T02:13:17.960Z,76.97
2023-05-18T02:14:18.456Z,77.07
2023-05-18T02:15:18.213Z,76.97
2023-05-18T02:16:18.831Z,76.97
2023-05-18T02:17:19.956Z,77.07
2023-05-18T02:18:19.884Z,77.07
2023-05-18T02:19:17.946Z,77.07
2023-05-18T02:20:17.889Z,77.28
2023-05-18T02:21:19.854Z,77.28
2023-05-18T02:22:17.889Z,77.38
2023-05-18T02:23:17.852Z,77.38
2023-05-18T02:24:17.856Z,77.48
2023-05-18T02:25:17.881Z,77.38
2023-05-18T02:26:18.153Z,77.38
2023-05-18T02:27:17.796Z,77.28
2023-05-18T02:28:17.874Z,77.17
2023-05-18T02:29:17.772Z,77.17
2023-05-18T02:30:17.799Z,77.28
2023-05-18T02:31:17.801Z,77.28
2023-05-18T02:32:17.783Z,77.38
2023-05-18T02:33:17.809Z,77.38
2023-05-18T02:34:17.766Z,77.38
2023-05-18T02:35:17.758Z,77.24
2023-05-18T02:36:17.728Z,77.38
2023-05-18T02:37:17.687Z,77.38
2023-05-18T02:38:17.764Z,77.28
2023-05-18T02:39:17.683Z,77.28
2023-05-18T02:40:18.617Z,77.38
2023-05-18T02:41:18.466Z,77.38
2023-05-18T02:42:17.684Z,77.38
2023-05-18T02:43:19.602Z,77.38
2023-05-18T02:44:17.624Z,77.38
2023-05-18T02:45:18.459Z,77.48
2023-05-18T02:46:19.651Z,77.48
2023-05-18T02:47:17.588Z,77.38
2023-05-18T02:48:18.382Z,77.28
2023-05-18T02:49:17.611Z,77.38
2023-05-18T02:50:17.890Z,77.38
2023-05-18T02:51:17.550Z,77.58
2023-05-18T02:52:17.572Z,77.69
2023-05-18T02:53:17.562Z,77.69
2023-05-18T02:54:19.503Z,77.79
2023-05-18T02:55:17.521Z,77.58
2023-05-18T02:56:17.590Z,77.69
2023-05-18T02:57:17.469Z,77.79
2023-05-18T02:58:18.310Z,77.89
2023-05-18T02:59:17.905Z,77.89
2023-05-18T03:00:17.437Z,78.00
2023-05-18T03:01:17.580Z,78.00
2023-05-18T03:02:17.498Z,77.89
2023-05-18T03:03:17.582Z,77.89
2023-05-18T03:04:17.417Z,77.89
2023-05-18T03:05:19.348Z,77.89
2023-05-18T03:06:18.236Z,77.89
2023-05-18T03:07:17.360Z,78.00
2023-05-18T03:08:17.357Z,78.00
2023-05-18T03:09:17.338Z,78.00
2023-05-18T03:10:17.326Z,78.10
2023-05-18T03:11:17.329Z,78.10
2023-05-18T03:12:17.390Z,78.10
2023-05-18T03:13:19.265Z,78.10
2023-05-18T03:14:19.277Z,78.20
2023-05-18T03:15:17.376Z,78.10
2023-05-18T03:16:19.262Z,78.10
2023-05-18T03:17:17.470Z,78.10
2023-05-18T03:18:17.252Z,78.10
2023-05-18T03:19:17.324Z,78.20
2023-05-18T03:20:17.236Z,78.20
2023-05-18T03:21:17.205Z,78.10
2023-05-18T03:22:17.998Z,78.10
2023-05-18T03:23:17.187Z,78.10
2023-05-18T03:24:19.160Z,78.10
2023-05-18T03:25:17.200Z,78.20
2023-05-18T03:26:19.138Z,78.30
2023-05-18T03:27:17.144Z,78.30
2023-05-18T03:28:17.171Z,78.44
2023-05-18T03:29:17.150Z,78.44
2023-05-18T03:30:17.127Z,78.55
2023-05-18T03:31:17.132Z,78.55
2023-05-18T03:32:17.124Z,78.44
2023-05-18T03:33:17.320Z,78.65
2023-05-18T03:34:17.073Z,78.75
2023-05-18T03:35:19.027Z,78.86
2023-05-18T03:36:17.093Z,79.06
2023-05-18T03:37:17.046Z,79.06
2023-05-18T03:38:17.088Z,79.06
2023-05-18T03:39:17.012Z,79.06
2023-05-18T03:40:17.050Z,79.16
2023-05-18T03:41:16.989Z,79.27
2023-05-18T03:42:16.994Z,79.16
2023-05-18T03:43:16.981Z,79.27
2023-05-18T03:44:17.169Z,79.27
2023-05-18T03:45:16.955Z,79.37
2023-05-18T03:46:17.265Z,79.47
2023-05-18T03:47:17.070Z,79.58
2023-05-18T03:48:16.934Z,79.58
2023-05-18T03:49:17.200Z,79.58
2023-05-18T03:50:18.408Z,79.58
2023-05-18T03:51:16.897Z,79.47
2023-05-18T03:52:17.680Z,79.47
2023-05-18T03:53:18.820Z,79.58
2023-05-18T03:54:18.825Z,79.58
2023-05-18T03:55:17.688Z,79.58
2023-05-18T03:56:16.881Z,79.68
2023-05-18T03:57:16.833Z,79.68
2023-05-18T03:58:16.834Z,79.79
2023-05-18T03:59:16.848Z,79.79
2023-05-18T04:00:16.771Z,79.79
2023-05-18T04:01:16.768Z,79.79
2023-05-18T04:02:16.804Z,79.79
2023-05-18T04:03:16.837Z,79.88
2023-05-18T04:04:16.805Z,79.99
2023-05-18T04:05:17.510Z,79.99
2023-05-18T04:06:16.855Z,79.99
2023-05-18T04:07:17.520Z,79.99
2023-05-18T04:08:16.906Z,80.09
2023-05-18T04:09:16.676Z,80.09
2023-05-18T04:10:16.841Z,79.99
2023-05-18T04:11:16.661Z,79.99
2023-05-18T04:12:17.625Z,79.88
2023-05-18T04:13:18.631Z,79.68
2023-05-18T04:14:17.441Z,79.58
2023-05-18T04:15:16.757Z,79.58
2023-05-18T04:16:18.608Z,79.68
2023-05-18T04:17:16.602Z,79.58
2023-05-18T04:18:16.608Z,79.47
2023-05-18T04:19:16.601Z,79.47
2023-05-18T04:20:16.609Z,79.47
2023-05-18T04:21:18.526Z,79.44
2023-05-18T04:22:18.527Z,79.33
2023-05-18T04:23:16.565Z,79.33
2023-05-18T04:24:16.578Z,79.23
2023-05-18T04:25:16.574Z,79.13
2023-05-18T04:26:18.063Z,79.03
2023-05-18T04:27:16.486Z,78.92
2023-05-18T04:28:18.946Z,78.92
2023-05-18T04:29:16.454Z,78.82
2023-05-18T04:30:16.601Z,78.82
2023-05-18T04:31:17.285Z,78.72
2023-05-18T04:32:18.620Z,78.61
2023-05-18T04:33:16.529Z,78.58
2023-05-18T04:34:16.436Z,78.61
2023-05-18T04:35:16.538Z,78.58
2023-05-18T04:36:16.383Z,78.41
2023-05-18T04:37:16.455Z,78.37
2023-05-18T04:38:16.405Z,78.37
2023-05-18T04:39:16.331Z,78.37
2023-05-18T04:40:16.657Z,78.37
2023-05-18T04:41:16.333Z,78.37
2023-05-18T04:42:16.298Z,78.37
2023-05-18T04:43:16.314Z,78.47
2023-05-18T04:44:16.288Z,78.37
2023-05-18T04:45:16.277Z,78.47
2023-05-18T04:46:17.181Z,78.47
2023-05-18T04:47:16.273Z,78.47
2023-05-18T04:48:18.210Z,78.47
2023-05-18T04:49:16.277Z,78.58
2023-05-18T04:50:16.250Z,78.68
2023-05-18T04:51:16.637Z,78.68
2023-05-18T04:52:16.218Z,78.58
2023-05-18T04:53:16.364Z,78.47
2023-05-18T04:54:16.254Z,78.37
2023-05-18T04:55:18.116Z,78.27
2023-05-18T04:56:16.176Z,78.17
2023-05-18T04:57:16.227Z,77.92
2023-05-18T04:58:16.185Z,77.82
2023-05-18T04:59:16.116Z,77.72
2023-05-18T05:00:18.086Z,77.72
2023-05-18T05:01:16.143Z,77.72
2023-05-18T05:02:16.896Z,77.82
2023-05-18T05:03:16.261Z,77.82
2023-05-18T05:04:18.014Z,77.82
2023-05-18T05:05:16.865Z,77.72
2023-05-18T05:06:18.000Z,77.72
2023-05-18T05:07:16.876Z,77.62
2023-05-18T05:08:16.088Z,77.41
2023-05-18T05:09:16.026Z,77.31
2023-05-18T05:10:17.970Z,77.20
2023-05-18T05:11:17.926Z,77.20
2023-05-18T05:12:15.976Z,77.31
2023-05-18T05:13:16.033Z,77.41
2023-05-18T05:14:17.915Z,77.41
2023-05-18T05:15:15.942Z,77.10
2023-05-18T05:16:16.259Z,76.90
2023-05-18T05:17:15.980Z,76.76
2023-05-18T05:18:16.724Z,76.55
2023-05-18T05:19:17.873Z,76.45
2023-05-18T05:20:17.844Z,76.45
2023-05-18T05:21:15.943Z,76.65
2023-05-18T05:22:16.131Z,76.55
2023-05-18T05:23:17.871Z,76.55
2023-05-18T05:24:16.633Z,76.55
2023-05-18T05:25:17.891Z,76.76
2023-05-18T05:26:16.632Z,76.55
2023-05-18T05:27:15.854Z,76.55
2023-05-18T05:28:15.801Z,76.51
2023-05-18T05:29:15.794Z,76.31
2023-05-18T05:30:17.741Z,76.21
2023-05-18T05:31:16.292Z,76.10
2023-05-18T05:32:15.952Z,76.00
2023-05-18T05:33:15.834Z,75.90
2023-05-18T05:34:17.682Z,75.80
2023-05-18T05:35:17.650Z,75.59
2023-05-18T05:36:15.678Z,75.49
2023-05-18T05:37:15.762Z,75.29
2023-05-18T05:38:17.645Z,75.38
2023-05-18T05:39:17.644Z,75.38
2023-05-18T05:40:17.635Z,75.45
2023-05-18T05:41:15.686Z,75.45
2023-05-18T05:42:15.622Z,75.35
2023-05-18T05:43:17.209Z,75.25
2023-05-18T05:44:15.605Z,75.04
2023-05-18T05:45:15.612Z,74.94
2023-05-18T05:46:15.864Z,74.84
2023-05-18T05:47:15.910Z,74.74
2023-05-18T05:48:15.601Z,74.60
2023-05-18T05:49:15.589Z,74.60
2023-05-18T05:50:15.556Z,74.40
2023-05-18T05:51:15.606Z,74.29
2023-05-18T05:52:15.538Z,74.19
2023-05-18T05:53:15.873Z,73.98
2023-05-18T05:54:15.575Z,73.88
2023-05-18T05:55:17.447Z,73.78
2023-05-18T05:56:15.501Z,73.57
2023-05-18T05:57:15.497Z,73.23
2023-05-18T05:58:15.516Z,73.02
2023-05-18T05:59:15.434Z,72.92
2023-05-18T06:00:15.421Z,72.92
2023-05-18T06:01:15.520Z,72.82
2023-05-18T06:02:15.519Z,72.82
2023-05-18T06:03:15.461Z,72.72
2023-05-18T06:04:15.418Z,72.61
2023-05-18T06:05:15.461Z,72.51
2023-05-18T06:06:17.322Z,72.41
2023-05-18T06:07:15.397Z,72.41
2023-05-18T06:08:15.342Z,72.51
2023-05-18T06:09:15.332Z,72.48
2023-05-18T06:10:15.313Z,72.48
2023-05-18T06:11:16.151Z,72.27
2023-05-18T06:12:15.433Z,72.27
2023-05-18T06:13:15.273Z,72.27
2023-05-18T06:14:17.344Z,72.38
2023-05-18T06:15:15.264Z,72.38
2023-05-18T06:16:15.295Z,72.58
2023-05-18T06:17:15.351Z,72.44
2023-05-18T06:18:15.252Z,72.34
2023-05-18T06:19:15.334Z,72.34
2023-05-18T06:20:15.234Z,72.34
2023-05-18T06:21:15.207Z,72.14
2023-05-18T06:22:15.193Z,71.73
2023-05-18T06:23:15.213Z,71.42
2023-05-18T06:24:15.155Z,70.98
2023-05-18T06:25:15.169Z,70.77
2023-05-18T06:26:15.161Z,70.57
2023-05-18T06:27:15.201Z,70.47
2023-05-18T06:28:15.101Z,70.36
2023-05-18T06:29:15.094Z,70.36
2023-05-18T06:30:15.116Z,70.26
2023-05-18T06:31:15.078Z,70.26
2023-05-18T06:32:15.157Z,70.16
2023-05-18T06:33:15.067Z,70.16
2023-05-18T06:34:15.051Z,70.06
2023-05-18T06:35:15.052Z,69.95
2023-05-18T06:36:15.019Z,69.95
2023-05-18T06:37:15.018Z,69.82
2023-05-18T06:38:15.006Z,69.61
2023-05-18T06:39:14.998Z,69.71
2023-05-18T06:40:14.975Z,69.82
2023-05-18T06:41:14.991Z,69.82
2023-05-18T06:42:14.980Z,69.92
2023-05-18T06:43:14.955Z,70.03
2023-05-18T06:44:14.950Z,70.12
2023-05-18T06:45:14.937Z,70.23
2023-05-18T06:46:14.960Z,70.20
2023-05-18T06:47:14.920Z,70.09
2023-05-18T06:48:14.886Z,69.99
2023-05-18T06:49:15.128Z,69.89
2023-05-18T06:50:14.973Z,69.99
2023-05-18T06:51:14.914Z,69.89
2023-05-18T06:52:14.856Z,69.65
2023-05-18T06:53:14.991Z,69.65
2023-05-18T06:54:14.903Z,69.55
2023-05-18T06:55:16.447Z,69.24
2023-05-18T06:56:14.827Z,68.93
2023-05-18T06:57:14.811Z,68.84
2023-05-18T06:58:14.786Z,68.52
2023-05-18T06:59:14.842Z,68.52
2023-05-18T07:00:14.757Z,68.39
2023-05-18T07:01:14.794Z,68.29
2023-05-18T07:02:14.771Z,68.08
2023-05-18T07:03:14.764Z,68.08
2023-05-18T07:04:14.716Z,68.08
2023-05-18T07:05:14.714Z,68.19
2023-05-18T07:06:14.684Z,68.19
2023-05-18T07:07:14.695Z,68.19
2023-05-18T07:08:14.722Z,68.16
2023-05-18T07:09:14.697Z,68.36
2023-05-18T07:10:14.625Z,68.46
2023-05-18T07:11:14.634Z,68.46
2023-05-18T07:12:14.618Z,68.16
2023-05-18T07:13:14.617Z,67.95
2023-05-18T07:14:14.590Z,67.92
2023-05-18T07:15:14.617Z,68.12
2023-05-18T07:16:14.619Z,68.02
2023-05-18T07:17:14.628Z,68.02
2023-05-18T07:18:14.616Z,67.82
2023-05-18T07:19:14.645Z,67.61
2023-05-18T07:20:14.533Z,67.07
2023-05-18T07:21:14.530Z,66.56
2023-05-18T07:22:14.532Z,66.15
2023-05-18T07:23:14.513Z,65.84
2023-05-18T07:24:14.491Z,65.64
2023-05-18T07:25:14.477Z,65.74
2023-05-18T07:26:15.926Z,66.05
2023-05-18T07:27:14.477Z,66.15
2023-05-18T07:28:14.472Z,66.22
2023-05-18T07:29:14.430Z,66.22
2023-05-18T07:30:14.429Z,66.02
2023-05-18T07:31:15.952Z,65.71
2023-05-18T07:32:14.389Z,65.51
2023-05-18T07:33:14.767Z,65.51
2023-05-18T07:34:14.407Z,65.10
2023-05-18T07:35:14.367Z,65.10
2023-05-18T07:36:15.839Z,64.97
2023-05-18T07:37:16.325Z,64.76
2023-05-18T07:38:14.323Z,64.56
2023-05-18T07:39:14.371Z,64.56
2023-05-18T07:40:14.296Z,64.56
2023-05-18T07:41:14.309Z,64.76
2023-05-18T07:42:14.284Z,64.87
2023-05-18T07:43:14.286Z,64.97
2023-05-18T07:44:14.258Z,65.07
2023-05-18T07:45:14.281Z,65.07
2023-05-18T07:46:14.260Z,64.94
2023-05-18T07:47:15.190Z,64.73
2023-05-18T07:48:14.294Z,64.43
2023-05-18T07:49:14.209Z,64.32
2023-05-18T07:50:14.210Z,64.12
2023-05-18T07:51:14.213Z,63.71
2023-05-18T07:52:14.182Z,63.20
2023-05-18T07:53:14.208Z,63.20
2023-05-18T07:54:14.145Z,63.28
2023-05-18T07:55:14.146Z,63.28
2023-05-18T07:56:14.127Z,63.18
2023-05-18T07:57:14.114Z,62.97
2023-05-18T07:58:14.087Z,62.97
2023-05-18T07:59:14.163Z,62.66
2023-05-18T08:00:14.069Z,62.46
2023-05-18T08:01:14.069Z,62.26
2023-05-18T08:02:15.587Z,62.05
2023-05-18T08:03:14.119Z,61.82
2023-05-18T08:04:14.193Z,61.82
2023-05-18T08:05:14.021Z,61.93
2023-05-18T08:06:14.033Z,62.13
2023-05-18T08:07:14.051Z,62.33
2023-05-18T08:08:14.025Z,62.63
2023-05-18T08:09:14.064Z,62.61
2023-05-18T08:10:14.058Z,62.51
2023-05-18T08:11:13.953Z,62.40
2023-05-18T08:12:13.989Z,62.10
2023-05-18T08:13:13.927Z,62.10
2023-05-18T08:14:13.941Z,61.99
2023-05-18T08:15:14.220Z,61.87
2023-05-18T08:16:13.934Z,61.76
2023-05-18T08:17:13.970Z,61.56
2023-05-18T08:18:14.008Z,61.76
2023-05-18T08:19:13.909Z,62.07
2023-05-18T08:20:13.918Z,61.97
2023-05-18T08:21:13.845Z,61.63
2023-05-18T08:22:15.295Z,61.22
2023-05-18T08:23:13.920Z,60.72
2023-05-18T08:24:13.831Z,60.52
2023-05-18T08:25:13.853Z,60.31
2023-05-18T08:26:14.213Z,60.41
2023-05-18T08:27:13.796Z,60.41
2023-05-18T08:28:13.755Z,60.08
2023-05-18T08:29:13.760Z,60.08
2023-05-18T08:30:13.767Z,60.49
2023-05-18T08:31:13.727Z,60.38
2023-05-18T08:32:13.731Z,59.98
2023-05-18T08:33:15.242Z,59.67
2023-05-18T08:34:13.731Z,58.96
2023-05-18T08:35:13.703Z,58.76
2023-05-18T08:36:13.690Z,58.73
2023-05-18T08:37:13.659Z,58.83
2023-05-18T08:38:15.292Z,58.94
2023-05-18T08:39:13.623Z,58.94
2023-05-18T08:40:13.639Z,58.42
2023-05-18T08:41:13.645Z,58.33
2023-05-18T08:42:13.597Z,58.12
2023-05-18T08:43:13.622Z,57.51
2023-05-18T08:44:13.577Z,57.10
2023-05-18T08:45:13.642Z,57.21
2023-05-18T08:46:13.577Z,56.90
2023-05-18T08:47:13.568Z,57.00
2023-05-18T08:48:13.685Z,57.31
2023-05-18T08:49:13.594Z,57.38
2023-05-18T08:50:13.555Z,57.59
2023-05-18T08:51:13.560Z,57.38
2023-05-18T08:52:13.495Z,57.28
2023-05-18T08:53:13.511Z,57.68
2023-05-18T08:54:13.552Z,57.28
2023-05-18T08:55:13.458Z,56.77
2023-05-18T08:56:13.472Z,56.77
2023-05-18T08:57:13.482Z,57.28
2023-05-18T08:58:13.442Z,57.08
2023-05-18T08:59:13.470Z,57.08
2023-05-18T09:00:13.421Z,56.57
2023-05-18T09:01:13.421Z,56.57
2023-05-18T09:02:13.390Z,57.18
2023-05-18T09:03:13.424Z,57.15
2023-05-18T09:04:14.839Z,56.95
2023-05-18T09:05:13.481Z,56.85
2023-05-18T09:06:13.368Z,56.54
2023-05-18T09:07:13.324Z,56.44
2023-05-18T09:08:13.307Z,56.24
2023-05-18T09:09:15.339Z,56.62
2023-05-18T09:10:13.576Z,56.62
2023-05-18T09:11:13.320Z,57.03
2023-05-18T09:12:13.308Z,56.92
2023-05-18T09:13:13.306Z,56.31
2023-05-18T09:14:13.313Z,55.50
2023-05-18T09:15:14.073Z,55.10
2023-05-18T09:16:13.246Z,55.20
2023-05-18T09:17:13.312Z,55.30
2023-05-18T09:18:13.300Z,55.40
2023-05-18T09:19:13.296Z,55.91
2023-05-18T09:20:13.195Z,56.49
2023-05-18T09:21:13.194Z,56.29
2023-05-18T09:22:13.159Z,55.98
2023-05-18T09:23:13.428Z,55.88
2023-05-18T09:24:15.068Z,56.18
2023-05-18T09:25:13.132Z,55.68
2023-05-18T09:26:13.119Z,55.78
2023-05-18T09:27:13.098Z,56.09
2023-05-18T09:28:13.095Z,55.78
2023-05-18T09:29:13.117Z,55.98
2023-05-18T09:30:13.060Z,56.18
2023-05-18T09:31:13.118Z,55.98
2023-05-18T09:32:13.047Z,55.37
2023-05-18T09:33:13.582Z,54.97
2023-05-18T09:34:13.043Z,54.97
2023-05-18T09:35:13.031Z,55.07
2023-05-18T09:36:12.990Z,55.37
2023-05-18T09:37:12.993Z,55.58
2023-05-18T09:38:14.941Z,55.76
2023-05-18T09:39:13.014Z,56.05
2023-05-18T09:40:12.969Z,56.16
2023-05-18T09:41:12.958Z,56.05
2023-05-18T09:42:12.931Z,55.65
2023-05-18T09:43:12.913Z,55.15
2023-05-18T09:44:12.943Z,54.53
2023-05-18T09:45:12.921Z,54.44
2023-05-18T09:46:14.325Z,54.24
2023-05-18T09:47:13.214Z,54.00
2023-05-18T09:48:12.944Z,54.11
2023-05-18T09:49:12.842Z,53.80
2023-05-18T09:50:14.352Z,53.70
2023-05-18T09:51:12.850Z,54.00
2023-05-18T09:52:12.818Z,54.82
2023-05-18T09:53:14.810Z,54.99
2023-05-18T09:54:12.801Z,55.10
2023-05-18T09:55:14.801Z,54.38
2023-05-18T09:56:12.882Z,53.78
2023-05-18T09:57:12.763Z,54.08
2023-05-18T09:58:12.907Z,54.49
2023-05-18T09:59:12.770Z,54.59
2023-05-18T10:00:12.801Z,54.76
2023-05-18T10:01:12.758Z,54.66
2023-05-18T10:02:12.738Z,54.26
2023-05-18T10:03:13.654Z,54.26
2023-05-18T10:04:12.761Z,54.76
2023-05-18T10:05:12.670Z,54.66
2023-05-18T10:06:12.646Z,54.56
2023-05-18T10:07:12.637Z,53.55
2023-05-18T10:08:13.001Z,53.34
2023-05-18T10:09:13.068Z,53.65
2023-05-18T10:10:12.625Z,53.63
2023-05-18T10:11:12.601Z,53.12
2023-05-18T10:12:12.596Z,53.22
2023-05-18T10:13:12.595Z,53.72
2023-05-18T10:14:12.593Z,54.13
2023-05-18T10:15:12.576Z,54.03
2023-05-18T10:16:12.591Z,53.63
2023-05-18T10:17:15.518Z,53.32
2023-05-18T10:18:12.551Z,53.32
2023-05-18T10:19:12.585Z,53.63
2023-05-18T10:20:12.679Z,53.72
2023-05-18T10:21:14.014Z,53.40
2023-05-18T10:22:12.516Z,52.99
2023-05-18T10:23:12.482Z,53.19
2023-05-18T10:24:14.431Z,53.30
2023-05-18T10:25:13.289Z,52.89
2023-05-18T10:26:12.476Z,52.69
2023-05-18T10:27:12.454Z,52.99
2023-05-18T10:28:12.422Z,53.19
2023-05-18T10:29:12.410Z,52.67
2023-05-18T10:30:12.482Z,52.16
2023-05-18T10:31:12.519Z,52.36
2023-05-18T10:32:12.377Z,52.46
2023-05-18T10:33:24.678Z,52.97
2023-05-18T10:34:14.305Z,53.17
2023-05-18T10:35:12.324Z,52.46
2023-05-18T10:36:14.306Z,52.36
2023-05-18T10:37:12.456Z,52.26
2023-05-18T10:38:12.302Z,53.07
2023-05-18T10:39:14.255Z,52.84
2023-05-18T10:40:14.248Z,52.14
2023-05-18T10:41:12.323Z,52.23
2023-05-18T10:42:12.304Z,52.74
2023-05-18T10:43:12.278Z,52.64
2023-05-18T10:44:12.272Z,52.44
2023-05-18T10:45:12.242Z,52.03
2023-05-18T10:46:12.297Z,51.53
2023-05-18T10:47:12.463Z,51.53
2023-05-18T10:48:12.541Z,51.71
2023-05-18T10:49:12.196Z,51.91
2023-05-18T10:50:12.173Z,51.91
2023-05-18T10:51:12.152Z,52.21
2023-05-18T10:52:12.170Z,51.91
2023-05-18T10:53:12.238Z,51.81
2023-05-18T10:54:12.226Z,51.20
2023-05-18T10:55:12.140Z,51.00
2023-05-18T10:56:12.093Z,51.30
2023-05-18T10:57:12.091Z,51.63
2023-05-18T10:58:12.095Z,51.53
2023-05-18T10:59:12.076Z,52.03
2023-05-18T11:00:12.081Z,52.23
2023-05-18T11:01:12.082Z,52.74
2023-05-18T11:02:12.188Z,53.05
2023-05-18T11:03:12.030Z,52.94
2023-05-18T11:04:12.167Z,52.74
2023-05-18T11:05:12.096Z,52.41
2023-05-18T11:06:12.055Z,52.61
2023-05-18T11:07:11.985Z,52.72
2023-05-18T11:08:11.962Z,52.92
2023-05-18T11:09:11.967Z,52.72
2023-05-18T11:10:11.970Z,52.21
2023-05-18T11:11:11.939Z,51.91
2023-05-18T11:12:11.943Z,51.78
2023-05-18T11:13:11.936Z,51.68
2023-05-18T11:14:11.899Z,51.28
2023-05-18T11:15:11.885Z,50.57
2023-05-18T11:16:11.963Z,50.47
2023-05-18T11:17:11.942Z,50.78
2023-05-18T11:18:11.883Z,51.07
2023-05-18T11:19:11.849Z,51.98
2023-05-18T11:20:11.867Z,52.19
2023-05-18T11:21:11.831Z,51.98
2023-05-18T11:22:11.861Z,51.58
2023-05-18T11:23:12.761Z,50.87
2023-05-18T11:24:13.756Z,50.98
2023-05-18T11:25:11.844Z,50.87
2023-05-18T11:26:11.800Z,50.47
2023-05-18T11:27:11.913Z,50.07
2023-05-18T11:28:13.304Z,50.57
2023-05-18T11:29:11.755Z,50.87
2023-05-18T11:31:11.717Z,51.89
2023-05-18T11:33:11.925Z,52.59
2023-05-18T11:34:11.707Z,52.49
2023-05-18T11:35:11.690Z,52.19
2023-05-18T11:36:13.644Z,51.76
2023-05-18T11:37:11.658Z,50.95
2023-05-18T11:38:11.641Z,50.85
2023-05-18T11:39:11.651Z,51.25
2023-05-18T11:40:11.881Z,51.15
2023-05-18T11:41:13.549Z,51.35
2023-05-18T11:42:11.596Z,50.95
2023-05-18T11:43:11.564Z,50.24
2023-05-18T11:44:11.579Z,49.64
2023-05-18T11:45:11.606Z,49.84
2023-05-18T11:46:11.556Z,49.74
2023-05-18T11:47:11.597Z,49.24
2023-05-18T11:48:11.582Z,48.63
2023-05-18T11:49:11.542Z,49.04
2023-05-18T11:50:11.518Z,49.44
2023-05-18T11:51:11.475Z,49.84
2023-05-18T11:52:11.491Z,49.84
2023-05-18T11:53:11.471Z,49.54
2023-05-18T11:54:11.532Z,49.52
2023-05-18T11:55:11.465Z,49.82
2023-05-18T11:56:11.432Z,49.82
2023-05-18T11:57:11.417Z,49.82
2023-05-18T11:58:11.449Z,49.92
2023-05-18T11:59:13.367Z,49.62
2023-05-18T12:00:11.388Z,49.72
2023-05-18T12:01:11.373Z,49.62
2023-05-18T12:02:11.430Z,49.21
2023-05-18T12:03:11.388Z,49.31
2023-05-18T12:04:11.369Z,49.41
2023-05-18T12:05:11.351Z,49.31
2023-05-18T12:06:11.320Z,49.41
2023-05-18T12:07:11.279Z,49.52
2023-05-18T12:08:11.304Z,49.82
2023-05-18T12:09:11.273Z,49.01
2023-05-18T12:10:11.298Z,48.71
2023-05-18T12:11:11.295Z,48.50
2023-05-18T12:12:11.243Z,48.61
2023-05-18T12:13:11.275Z,48.91
2023-05-18T12:14:11.220Z,48.50
2023-05-18T12:15:11.635Z,49.31
2023-05-18T12:16:11.556Z,49.52
2023-05-18T12:17:11.264Z,49.09
2023-05-18T12:18:11.364Z,49.09
2023-05-18T12:19:11.248Z,49.19
2023-05-18T12:20:11.222Z,49.19
2023-05-18T12:21:11.145Z,49.19
2023-05-18T12:22:11.195Z,48.76
2023-05-18T12:23:11.149Z,46.14
2023-05-18T12:24:11.124Z,46.06
2023-05-18T12:25:11.107Z,46.97
2023-05-18T12:26:13.069Z,47.98
2023-05-18T12:27:11.063Z,47.75
2023-05-18T12:28:11.906Z,47.94
2023-05-18T12:29:11.089Z,47.71
2023-05-18T12:30:13.051Z,46.96
2023-05-18T12:31:11.062Z,46.34
2023-05-18T12:32:11.153Z,45.71
2023-05-18T12:33:11.026Z,45.37
2023-05-18T12:34:10.988Z,44.95
2023-05-18T12:35:10.994Z,44.32
2023-05-18T12:36:10.985Z,44.50
2023-05-18T12:37:10.994Z,43.77
2023-05-18T12:38:10.949Z,43.46
2023-05-18T12:39:10.940Z,42.43
2023-05-18T12:40:10.971Z,41.61
2023-05-18T12:41:10.914Z,41.41
2023-05-18T12:42:10.906Z,41.19
2023-05-18T12:43:10.920Z,40.88
2023-05-18T12:44:10.906Z,40.75
2023-05-18T12:45:11.433Z,40.23
2023-05-18T12:46:10.890Z,40.01
2023-05-18T12:47:10.844Z,39.90
2023-05-18T12:48:10.947Z,39.68
2023-05-18T12:49:10.832Z,39.48
2023-05-18T12:50:11.830Z,39.16
2023-05-18T12:51:10.831Z,38.56
2023-05-18T12:52:10.792Z,38.37
2023-05-18T12:53:10.780Z,37.95
2023-05-18T12:54:10.789Z,37.45